sensor_id;sensor_type;location;lat;lon;timestamp;P1;durP1;ratioP1;P2;durP2;ratioP2
43710;SDS011;29309;42.682;23.372;2022-12-04T00:00:39;9.07;;;5.47;;
43710;SDS011;29309;42.682;23.372;2022-12-04T00:03:05;11.38;;;6.78;;
43710;SDS011;29309;42.682;23.372;2022-12-04T00:05:31;12.75;;;5.70;;
43710;SDS011;29309;42.682;23.372;2022-12-04T00:07:56;10.43;;;6.25;;
43710;SDS011;29309;42.682;23.372;2022-12-04T00:10:22;10.13;;;5.93;;
43710;SDS011;29309;42.682;23.372;2022-12-04T00:12:47;12.20;;;6.25;;
43710;SDS011;29309;42.682;23.372;2022-12-04T00:15:13;10.95;;;5.95;;
43710;SDS011;29309;42.682;23.372;2022-12-04T00:17:39;10.68;;;5.95;;
43710;SDS011;29309;42.682;23.372;2022-12-04T00:20:04;11.15;;;5.78;;
43710;SDS011;29309;42.682;23.372;2022-12-04T00:22:31;12.18;;;5.65;;
43710;SDS011;29309;42.682;23.372;2022-12-04T00:24:57;10.65;;;6.15;;
43710;SDS011;29309;42.682;23.372;2022-12-04T00:27:22;10.93;;;6.28;;
43710;SDS011;29309;42.682;23.372;2022-12-04T00:29:48;8.73;;;5.65;;
43710;SDS011;29309;42.682;23.372;2022-12-04T00:32:13;11.27;;;6.10;;
43710;SDS011;29309;42.682;23.372;2022-12-04T00:34:38;10.00;;;5.10;;
43710;SDS011;29309;42.682;23.372;2022-12-04T00:37:04;8.90;;;5.35;;
43710;SDS011;29309;42.682;23.372;2022-12-04T00:39:29;8.00;;;5.43;;
43710;SDS011;29309;42.682;23.372;2022-12-04T00:41:55;8.57;;;5.13;;
43710;SDS011;29309;42.682;23.372;2022-12-04T00:44:20;8.98;;;4.32;;
43710;SDS011;29309;42.682;23.372;2022-12-04T00:46:45;8.38;;;4.88;;
43710;SDS011;29309;42.682;23.372;2022-12-04T00:49:11;8.90;;;5.45;;
43710;SDS011;29309;42.682;23.372;2022-12-04T00:51:37;10.98;;;5.93;;
43710;SDS011;29309;42.682;23.372;2022-12-04T00:54:02;6.10;;;3.85;;
43710;SDS011;29309;42.682;23.372;2022-12-04T00:56:28;7.93;;;4.53;;
43710;SDS011;29309;42.682;23.372;2022-12-04T00:58:54;9.30;;;4.90;;
43710;SDS011;29309;42.682;23.372;2022-12-04T01:01:22;7.57;;;4.60;;
43710;SDS011;29309;42.682;23.372;2022-12-04T01:03:49;7.10;;;3.92;;
43710;SDS011;29309;42.682;23.372;2022-12-04T01:06:19;6.75;;;4.25;;
43710;SDS011;29309;42.682;23.372;2022-12-04T01:08:45;7.43;;;4.50;;
43710;SDS011;29309;42.682;23.372;2022-12-04T01:11:10;8.52;;;4.63;;
43710;SDS011;29309;42.682;23.372;2022-12-04T01:13:35;6.82;;;4.32;;
43710;SDS011;29309;42.682;23.372;2022-12-04T01:16:01;7.30;;;3.97;;
43710;SDS011;29309;42.682;23.372;2022-12-04T01:18:26;6.72;;;3.95;;
43710;SDS011;29309;42.682;23.372;2022-12-04T01:20:52;8.65;;;3.90;;
43710;SDS011;29309;42.682;23.372;2022-12-04T01:23:18;8.23;;;5.13;;
43710;SDS011;29309;42.682;23.372;2022-12-04T01:25:54;7.13;;;3.67;;
43710;SDS011;29309;42.682;23.372;2022-12-04T01:28:21;6.43;;;4.18;;
43710;SDS011;29309;42.682;23.372;2022-12-04T01:31:00;7.05;;;4.60;;
43710;SDS011;29309;42.682;23.372;2022-12-04T01:33:28;6.50;;;4.28;;
43710;SDS011;29309;42.682;23.372;2022-12-04T01:35:55;7.57;;;4.18;;
43710;SDS011;29309;42.682;23.372;2022-12-04T01:38:22;6.80;;;3.75;;
43710;SDS011;29309;42.682;23.372;2022-12-04T01:40:48;6.88;;;4.30;;
43710;SDS011;29309;42.682;23.372;2022-12-04T01:43:14;6.93;;;4.22;;
43710;SDS011;29309;42.682;23.372;2022-12-04T01:45:44;8.75;;;3.78;;
43710;SDS011;29309;42.682;23.372;2022-12-04T01:48:13;6.40;;;3.55;;
43710;SDS011;29309;42.682;23.372;2022-12-04T01:50:45;5.47;;;3.88;;
43710;SDS011;29309;42.682;23.372;2022-12-04T01:53:14;6.57;;;3.95;;
43710;SDS011;29309;42.682;23.372;2022-12-04T01:55:41;8.20;;;4.40;;
43710;SDS011;29309;42.682;23.372;2022-12-04T01:58:08;7.55;;;4.55;;
43710;SDS011;29309;42.682;23.372;2022-12-04T02:00:34;7.70;;;4.13;;
43710;SDS011;29309;42.682;23.372;2022-12-04T02:02:59;5.20;;;3.63;;
43710;SDS011;29309;42.682;23.372;2022-12-04T02:05:25;7.10;;;3.97;;
43710;SDS011;29309;42.682;23.372;2022-12-04T02:07:52;7.50;;;3.83;;
43710;SDS011;29309;42.682;23.372;2022-12-04T02:10:23;6.68;;;4.00;;
43710;SDS011;29309;42.682;23.372;2022-12-04T02:13:05;6.40;;;4.00;;
43710;SDS011;29309;42.682;23.372;2022-12-04T02:15:53;6.18;;;3.55;;
43710;SDS011;29309;42.682;23.372;2022-12-04T02:26:42;7.43;;;4.55;;
43710;SDS011;29309;42.682;23.372;2022-12-04T02:29:26;5.63;;;3.80;;
43710;SDS011;29309;42.682;23.372;2022-12-04T02:31:56;7.55;;;3.95;;
43710;SDS011;29309;42.682;23.372;2022-12-04T02:37:08;10.38;;;4.90;;
43710;SDS011;29309;42.682;23.372;2022-12-04T02:39:49;6.35;;;4.05;;
43710;SDS011;29309;42.682;23.372;2022-12-04T02:45:19;6.82;;;3.33;;
43710;SDS011;29309;42.682;23.372;2022-12-04T02:47:50;6.78;;;3.92;;
43710;SDS011;29309;42.682;23.372;2022-12-04T02:50:18;9.13;;;3.70;;
43710;SDS011;29309;42.682;23.372;2022-12-04T02:52:47;7.25;;;4.10;;
43710;SDS011;29309;42.682;23.372;2022-12-04T02:55:18;6.93;;;3.47;;
43710;SDS011;29309;42.682;23.372;2022-12-04T02:57:55;6.80;;;3.60;;
43710;SDS011;29309;42.682;23.372;2022-12-04T03:00:25;6.40;;;3.83;;
43710;SDS011;29309;42.682;23.372;2022-12-04T03:03:00;5.03;;;3.38;;
43710;SDS011;29309;42.682;23.372;2022-12-04T03:05:54;5.72;;;3.33;;
43710;SDS011;29309;42.682;23.372;2022-12-04T03:08:20;5.88;;;3.30;;
43710;SDS011;29309;42.682;23.372;2022-12-04T03:10:51;4.15;;;2.88;;
43710;SDS011;29309;42.682;23.372;2022-12-04T03:13:23;5.07;;;2.85;;
43710;SDS011;29309;42.682;23.372;2022-12-04T03:15:57;4.88;;;3.10;;
43710;SDS011;29309;42.682;23.372;2022-12-04T03:18:32;5.32;;;2.97;;
43710;SDS011;29309;42.682;23.372;2022-12-04T03:21:05;4.68;;;2.55;;
43710;SDS011;29309;42.682;23.372;2022-12-04T03:23:43;4.95;;;2.72;;
43710;SDS011;29309;42.682;23.372;2022-12-04T03:26:49;4.55;;;2.53;;
43710;SDS011;29309;42.682;23.372;2022-12-04T03:34:03;6.50;;;3.47;;
43710;SDS011;29309;42.682;23.372;2022-12-04T03:36:53;7.30;;;3.00;;
43710;SDS011;29309;42.682;23.372;2022-12-04T03:39:33;5.18;;;3.03;;
43710;SDS011;29309;42.682;23.372;2022-12-04T03:45:00;4.78;;;2.90;;
43710;SDS011;29309;42.682;23.372;2022-12-04T03:47:45;5.90;;;3.65;;
43710;SDS011;29309;42.682;23.372;2022-12-04T03:50:34;4.60;;;3.08;;
43710;SDS011;29309;42.682;23.372;2022-12-04T03:53:11;6.00;;;3.72;;
43710;SDS011;29309;42.682;23.372;2022-12-04T03:55:50;5.85;;;3.53;;
43710;SDS011;29309;42.682;23.372;2022-12-04T03:58:23;5.35;;;3.03;;
43710;SDS011;29309;42.682;23.372;2022-12-04T04:00:54;5.70;;;2.45;;
43710;SDS011;29309;42.682;23.372;2022-12-04T04:03:22;4.05;;;2.25;;
43710;SDS011;29309;42.682;23.372;2022-12-04T04:05:53;4.38;;;2.75;;
43710;SDS011;29309;42.682;23.372;2022-12-04T04:08:26;3.42;;;2.15;;
43710;SDS011;29309;42.682;23.372;2022-12-04T04:11:03;4.82;;;2.40;;
43710;SDS011;29309;42.682;23.372;2022-12-04T04:13:32;5.07;;;2.85;;
43710;SDS011;29309;42.682;23.372;2022-12-04T04:16:24;4.57;;;2.25;;
43710;SDS011;29309;42.682;23.372;2022-12-04T04:19:12;3.97;;;2.35;;
43710;SDS011;29309;42.682;23.372;2022-12-04T04:21:59;4.53;;;2.72;;
43710;SDS011;29309;42.682;23.372;2022-12-04T04:25:20;5.45;;;3.03;;
43710;SDS011;29309;42.682;23.372;2022-12-04T04:27:40;4.15;;;2.72;;
43710;SDS011;29309;42.682;23.372;2022-12-04T04:30:06;5.18;;;2.97;;
43710;SDS011;29309;42.682;23.372;2022-12-04T04:35:20;4.28;;;2.72;;
43710;SDS011;29309;42.682;23.372;2022-12-04T04:40:22;7.38;;;3.13;;
43710;SDS011;29309;42.682;23.372;2022-12-04T04:43:04;5.50;;;3.13;;
43710;SDS011;29309;42.682;23.372;2022-12-04T04:45:36;5.10;;;3.15;;
43710;SDS011;29309;42.682;23.372;2022-12-04T04:48:08;5.90;;;2.92;;
43710;SDS011;29309;42.682;23.372;2022-12-04T04:50:40;4.10;;;2.65;;
43710;SDS011;29309;42.682;23.372;2022-12-04T04:53:08;4.82;;;3.17;;
43710;SDS011;29309;42.682;23.372;2022-12-04T04:55:41;6.32;;;2.67;;
43710;SDS011;29309;42.682;23.372;2022-12-04T04:58:09;5.20;;;3.15;;
43710;SDS011;29309;42.682;23.372;2022-12-04T05:00:37;3.75;;;2.38;;
43710;SDS011;29309;42.682;23.372;2022-12-04T05:03:03;5.03;;;2.67;;
43710;SDS011;29309;42.682;23.372;2022-12-04T05:05:29;4.68;;;2.88;;
43710;SDS011;29309;42.682;23.372;2022-12-04T05:07:54;5.80;;;3.03;;
43710;SDS011;29309;42.682;23.372;2022-12-04T05:10:20;4.53;;;3.05;;
43710;SDS011;29309;42.682;23.372;2022-12-04T05:12:45;6.15;;;3.45;;
43710;SDS011;29309;42.682;23.372;2022-12-04T05:15:11;6.75;;;3.40;;
43710;SDS011;29309;42.682;23.372;2022-12-04T05:17:36;5.03;;;3.15;;
43710;SDS011;29309;42.682;23.372;2022-12-04T05:20:02;5.03;;;3.25;;
43710;SDS011;29309;42.682;23.372;2022-12-04T05:22:30;5.32;;;3.42;;
43710;SDS011;29309;42.682;23.372;2022-12-04T05:24:59;6.57;;;3.97;;
43710;SDS011;29309;42.682;23.372;2022-12-04T05:27:25;5.93;;;3.67;;
43710;SDS011;29309;42.682;23.372;2022-12-04T05:29:52;9.38;;;4.22;;
43710;SDS011;29309;42.682;23.372;2022-12-04T05:32:22;5.68;;;3.53;;
43710;SDS011;29309;42.682;23.372;2022-12-04T05:34:51;7.72;;;4.13;;
43710;SDS011;29309;42.682;23.372;2022-12-04T05:37:18;6.78;;;4.15;;
43710;SDS011;29309;42.682;23.372;2022-12-04T05:39:44;7.40;;;4.00;;
43710;SDS011;29309;42.682;23.372;2022-12-04T05:42:10;6.95;;;4.63;;
43710;SDS011;29309;42.682;23.372;2022-12-04T05:44:35;6.47;;;3.78;;
43710;SDS011;29309;42.682;23.372;2022-12-04T05:47:01;6.57;;;3.72;;
43710;SDS011;29309;42.682;23.372;2022-12-04T05:49:33;5.57;;;3.40;;
43710;SDS011;29309;42.682;23.372;2022-12-04T05:51:59;7.40;;;4.00;;
43710;SDS011;29309;42.682;23.372;2022-12-04T05:54:25;6.03;;;4.13;;
43710;SDS011;29309;42.682;23.372;2022-12-04T05:56:50;6.35;;;3.38;;
43710;SDS011;29309;42.682;23.372;2022-12-04T05:59:16;6.28;;;3.60;;
43710;SDS011;29309;42.682;23.372;2022-12-04T06:01:42;6.20;;;3.67;;
43710;SDS011;29309;42.682;23.372;2022-12-04T06:04:08;5.20;;;3.33;;
43710;SDS011;29309;42.682;23.372;2022-12-04T06:06:34;5.75;;;3.47;;
43710;SDS011;29309;42.682;23.372;2022-12-04T06:09:00;7.05;;;3.83;;
43710;SDS011;29309;42.682;23.372;2022-12-04T06:11:30;6.65;;;3.38;;
43710;SDS011;29309;42.682;23.372;2022-12-04T06:13:58;7.55;;;3.78;;
43710;SDS011;29309;42.682;23.372;2022-12-04T06:16:26;7.93;;;4.07;;
43710;SDS011;29309;42.682;23.372;2022-12-04T06:18:54;6.85;;;4.28;;
43710;SDS011;29309;42.682;23.372;2022-12-04T06:21:22;7.60;;;4.45;;
43710;SDS011;29309;42.682;23.372;2022-12-04T06:23:49;5.65;;;3.50;;
43710;SDS011;29309;42.682;23.372;2022-12-04T06:26:15;10.18;;;4.30;;
43710;SDS011;29309;42.682;23.372;2022-12-04T06:28:41;6.38;;;3.70;;
43710;SDS011;29309;42.682;23.372;2022-12-04T06:31:08;9.65;;;3.22;;
43710;SDS011;29309;42.682;23.372;2022-12-04T06:33:37;6.03;;;3.70;;
43710;SDS011;29309;42.682;23.372;2022-12-04T06:36:04;7.35;;;4.07;;
43710;SDS011;29309;42.682;23.372;2022-12-04T06:38:31;7.68;;;4.15;;
43710;SDS011;29309;42.682;23.372;2022-12-04T06:40:57;7.28;;;4.45;;
43710;SDS011;29309;42.682;23.372;2022-12-04T06:43:26;8.60;;;4.65;;
43710;SDS011;29309;42.682;23.372;2022-12-04T06:45:58;9.60;;;4.63;;
43710;SDS011;29309;42.682;23.372;2022-12-04T06:48:43;9.10;;;5.03;;
43710;SDS011;29309;42.682;23.372;2022-12-04T06:51:10;8.23;;;4.20;;
43710;SDS011;29309;42.682;23.372;2022-12-04T06:53:38;7.93;;;4.60;;
43710;SDS011;29309;42.682;23.372;2022-12-04T06:56:05;9.23;;;4.60;;
43710;SDS011;29309;42.682;23.372;2022-12-04T06:58:33;8.50;;;4.22;;
43710;SDS011;29309;42.682;23.372;2022-12-04T07:01:04;9.13;;;5.75;;
43710;SDS011;29309;42.682;23.372;2022-12-04T07:03:35;9.38;;;4.45;;
43710;SDS011;29309;42.682;23.372;2022-12-04T07:06:15;7.65;;;4.57;;
43710;SDS011;29309;42.682;23.372;2022-12-04T07:08:43;8.13;;;4.75;;
43710;SDS011;29309;42.682;23.372;2022-12-04T07:11:09;14.38;;;5.40;;
43710;SDS011;29309;42.682;23.372;2022-12-04T07:13:35;7.60;;;4.45;;
43710;SDS011;29309;42.682;23.372;2022-12-04T07:16:02;7.32;;;5.10;;
43710;SDS011;29309;42.682;23.372;2022-12-04T07:18:29;7.78;;;4.38;;
43710;SDS011;29309;42.682;23.372;2022-12-04T07:20:55;6.88;;;4.00;;
43710;SDS011;29309;42.682;23.372;2022-12-04T07:23:21;8.70;;;4.90;;
43710;SDS011;29309;42.682;23.372;2022-12-04T07:25:46;10.02;;;5.90;;
43710;SDS011;29309;42.682;23.372;2022-12-04T07:28:12;8.18;;;4.53;;
43710;SDS011;29309;42.682;23.372;2022-12-04T07:30:37;7.40;;;4.03;;
43710;SDS011;29309;42.682;23.372;2022-12-04T07:33:03;8.25;;;4.60;;
43710;SDS011;29309;42.682;23.372;2022-12-04T07:35:29;8.15;;;4.15;;
43710;SDS011;29309;42.682;23.372;2022-12-04T07:37:54;7.63;;;4.30;;
43710;SDS011;29309;42.682;23.372;2022-12-04T07:40:19;7.65;;;3.83;;
43710;SDS011;29309;42.682;23.372;2022-12-04T07:42:45;7.60;;;3.58;;
43710;SDS011;29309;42.682;23.372;2022-12-04T07:45:10;8.73;;;4.35;;
43710;SDS011;29309;42.682;23.372;2022-12-04T07:47:36;15.38;;;4.45;;
43710;SDS011;29309;42.682;23.372;2022-12-04T07:50:03;16.70;;;6.45;;
43710;SDS011;29309;42.682;23.372;2022-12-04T07:52:29;9.85;;;4.10;;
43710;SDS011;29309;42.682;23.372;2022-12-04T07:54:55;6.80;;;3.95;;
43710;SDS011;29309;42.682;23.372;2022-12-04T07:57:21;5.80;;;3.65;;
43710;SDS011;29309;42.682;23.372;2022-12-04T07:59:46;9.02;;;4.53;;
43710;SDS011;29309;42.682;23.372;2022-12-04T08:02:12;9.55;;;3.95;;
43710;SDS011;29309;42.682;23.372;2022-12-04T08:04:37;5.57;;;3.08;;
43710;SDS011;29309;42.682;23.372;2022-12-04T08:07:03;5.55;;;3.20;;
43710;SDS011;29309;42.682;23.372;2022-12-04T08:09:29;7.80;;;4.07;;
43710;SDS011;29309;42.682;23.372;2022-12-04T08:11:54;11.07;;;5.32;;
43710;SDS011;29309;42.682;23.372;2022-12-04T08:14:20;7.55;;;3.58;;
43710;SDS011;29309;42.682;23.372;2022-12-04T08:16:47;8.43;;;4.13;;
43710;SDS011;29309;42.682;23.372;2022-12-04T08:19:13;5.68;;;3.13;;
43710;SDS011;29309;42.682;23.372;2022-12-04T08:21:39;5.88;;;3.13;;
43710;SDS011;29309;42.682;23.372;2022-12-04T08:24:04;7.40;;;3.78;;
43710;SDS011;29309;42.682;23.372;2022-12-04T08:26:30;9.13;;;3.38;;
43710;SDS011;29309;42.682;23.372;2022-12-04T08:28:57;10.18;;;4.07;;
43710;SDS011;29309;42.682;23.372;2022-12-04T08:31:26;5.32;;;3.03;;
43710;SDS011;29309;42.682;23.372;2022-12-04T08:33:54;5.78;;;2.97;;
43710;SDS011;29309;42.682;23.372;2022-12-04T08:36:21;10.43;;;3.38;;
43710;SDS011;29309;42.682;23.372;2022-12-04T08:38:47;6.50;;;2.95;;
43710;SDS011;29309;42.682;23.372;2022-12-04T08:41:14;3.45;;;2.08;;
43710;SDS011;29309;42.682;23.372;2022-12-04T08:43:41;7.97;;;3.40;;
43710;SDS011;29309;42.682;23.372;2022-12-04T08:46:07;6.38;;;3.13;;
43710;SDS011;29309;42.682;23.372;2022-12-04T08:48:35;7.68;;;2.97;;
43710;SDS011;29309;42.682;23.372;2022-12-04T08:51:01;4.78;;;3.05;;
43710;SDS011;29309;42.682;23.372;2022-12-04T08:53:28;3.90;;;2.40;;
43710;SDS011;29309;42.682;23.372;2022-12-04T08:55:54;5.03;;;2.83;;
43710;SDS011;29309;42.682;23.372;2022-12-04T08:58:20;6.72;;;3.40;;
43710;SDS011;29309;42.682;23.372;2022-12-04T09:00:45;6.93;;;3.08;;
43710;SDS011;29309;42.682;23.372;2022-12-04T09:03:12;7.18;;;3.30;;
43710;SDS011;29309;42.682;23.372;2022-12-04T09:05:39;7.05;;;3.90;;
43710;SDS011;29309;42.682;23.372;2022-12-04T09:08:06;8.70;;;3.70;;
43710;SDS011;29309;42.682;23.372;2022-12-04T09:10:33;7.00;;;3.38;;
43710;SDS011;29309;42.682;23.372;2022-12-04T09:12:59;6.75;;;3.05;;
43710;SDS011;29309;42.682;23.372;2022-12-04T09:15:25;11.95;;;3.45;;
43710;SDS011;29309;42.682;23.372;2022-12-04T09:17:50;5.15;;;2.85;;
43710;SDS011;29309;42.682;23.372;2022-12-04T09:20:16;6.40;;;2.60;;
43710;SDS011;29309;42.682;23.372;2022-12-04T09:22:42;6.78;;;3.05;;
43710;SDS011;29309;42.682;23.372;2022-12-04T09:25:07;6.82;;;2.83;;
43710;SDS011;29309;42.682;23.372;2022-12-04T09:27:36;6.60;;;2.85;;
43710;SDS011;29309;42.682;23.372;2022-12-04T09:30:05;6.30;;;3.28;;
43710;SDS011;29309;42.682;23.372;2022-12-04T09:32:32;5.10;;;2.83;;
43710;SDS011;29309;42.682;23.372;2022-12-04T09:34:58;6.65;;;2.90;;
43710;SDS011;29309;42.682;23.372;2022-12-04T09:37:23;5.85;;;3.50;;
43710;SDS011;29309;42.682;23.372;2022-12-04T09:39:49;3.97;;;2.70;;
43710;SDS011;29309;42.682;23.372;2022-12-04T09:42:18;5.88;;;2.60;;
43710;SDS011;29309;42.682;23.372;2022-12-04T09:47:46;5.60;;;2.88;;
43710;SDS011;29309;42.682;23.372;2022-12-04T09:53:21;7.53;;;2.90;;
43710;SDS011;29309;42.682;23.372;2022-12-04T09:55:58;7.43;;;3.90;;
43710;SDS011;29309;42.682;23.372;2022-12-04T09:59:29;6.57;;;3.97;;
43710;SDS011;29309;42.682;23.372;2022-12-04T10:04:04;6.10;;;3.70;;
43710;SDS011;29309;42.682;23.372;2022-12-04T10:06:32;6.57;;;2.97;;
43710;SDS011;29309;42.682;23.372;2022-12-04T10:12:22;6.13;;;3.30;;
43710;SDS011;29309;42.682;23.372;2022-12-04T10:25:56;7.40;;;4.50;;
43710;SDS011;29309;42.682;23.372;2022-12-04T10:28:30;8.00;;;3.90;;
43710;SDS011;29309;42.682;23.372;2022-12-04T10:31:02;6.82;;;4.15;;
43710;SDS011;29309;42.682;23.372;2022-12-04T10:34:04;8.95;;;4.07;;
43710;SDS011;29309;42.682;23.372;2022-12-04T10:36:33;10.98;;;4.43;;
43710;SDS011;29309;42.682;23.372;2022-12-04T10:39:01;12.35;;;4.70;;
43710;SDS011;29309;42.682;23.372;2022-12-04T10:41:44;8.45;;;4.15;;
43710;SDS011;29309;42.682;23.372;2022-12-04T10:44:17;7.47;;;4.18;;
43710;SDS011;29309;42.682;23.372;2022-12-04T10:46:44;6.88;;;3.67;;
43710;SDS011;29309;42.682;23.372;2022-12-04T10:51:39;7.55;;;4.50;;
43710;SDS011;29309;42.682;23.372;2022-12-04T10:56:49;5.68;;;3.10;;
43710;SDS011;29309;42.682;23.372;2022-12-04T10:59:51;6.22;;;3.40;;
43710;SDS011;29309;42.682;23.372;2022-12-04T11:02:25;6.00;;;3.92;;
43710;SDS011;29309;42.682;23.372;2022-12-04T11:04:57;5.80;;;4.03;;
43710;SDS011;29309;42.682;23.372;2022-12-04T11:07:25;5.75;;;3.40;;
43710;SDS011;29309;42.682;23.372;2022-12-04T11:09:55;5.15;;;3.08;;
43710;SDS011;29309;42.682;23.372;2022-12-04T11:12:21;7.68;;;3.88;;
43710;SDS011;29309;42.682;23.372;2022-12-04T11:14:47;6.57;;;3.22;;
43710;SDS011;29309;42.682;23.372;2022-12-04T11:17:43;6.85;;;3.65;;
43710;SDS011;29309;42.682;23.372;2022-12-04T11:20:14;6.05;;;3.97;;
43710;SDS011;29309;42.682;23.372;2022-12-04T11:22:49;6.53;;;3.70;;
43710;SDS011;29309;42.682;23.372;2022-12-04T11:25:17;6.38;;;3.78;;
43710;SDS011;29309;42.682;23.372;2022-12-04T11:27:49;6.63;;;3.85;;
43710;SDS011;29309;42.682;23.372;2022-12-04T11:30:20;9.13;;;3.67;;
43710;SDS011;29309;42.682;23.372;2022-12-04T11:32:50;7.28;;;3.65;;
43710;SDS011;29309;42.682;23.372;2022-12-04T11:35:21;8.05;;;3.95;;
43710;SDS011;29309;42.682;23.372;2022-12-04T11:37:58;4.93;;;3.25;;
43710;SDS011;29309;42.682;23.372;2022-12-04T11:40:57;7.05;;;3.33;;
43710;SDS011;29309;42.682;23.372;2022-12-04T11:43:26;7.97;;;3.50;;
43710;SDS011;29309;42.682;23.372;2022-12-04T11:48:24;7.30;;;3.92;;
43710;SDS011;29309;42.682;23.372;2022-12-04T11:56:49;6.82;;;4.03;;
43710;SDS011;29309;42.682;23.372;2022-12-04T12:00:08;6.18;;;4.05;;
43710;SDS011;29309;42.682;23.372;2022-12-04T12:11:36;6.80;;;4.32;;
43710;SDS011;29309;42.682;23.372;2022-12-04T12:14:08;9.32;;;4.25;;
43710;SDS011;29309;42.682;23.372;2022-12-04T12:16:53;7.38;;;4.78;;
43710;SDS011;29309;42.682;23.372;2022-12-04T12:33:25;8.60;;;4.65;;
43710;SDS011;29309;42.682;23.372;2022-12-04T12:41:03;9.15;;;5.10;;
43710;SDS011;29309;42.682;23.372;2022-12-04T12:43:53;10.50;;;5.78;;
43710;SDS011;29309;42.682;23.372;2022-12-04T12:46:31;12.88;;;5.88;;
43710;SDS011;29309;42.682;23.372;2022-12-04T12:49:08;7.70;;;5.10;;
43710;SDS011;29309;42.682;23.372;2022-12-04T12:51:49;12.18;;;5.57;;
43710;SDS011;29309;42.682;23.372;2022-12-04T12:54:54;12.02;;;5.18;;
43710;SDS011;29309;42.682;23.372;2022-12-04T12:57:19;7.72;;;5.57;;
43710;SDS011;29309;42.682;23.372;2022-12-04T13:02:32;9.25;;;5.10;;
43710;SDS011;29309;42.682;23.372;2022-12-04T13:05:09;8.30;;;4.55;;
43710;SDS011;29309;42.682;23.372;2022-12-04T13:07:48;11.82;;;5.72;;
43710;SDS011;29309;42.682;23.372;2022-12-04T13:10:26;8.30;;;5.50;;
43710;SDS011;29309;42.682;23.372;2022-12-04T13:15:39;12.32;;;5.97;;
43710;SDS011;29309;42.682;23.372;2022-12-04T13:18:10;9.98;;;5.72;;
43710;SDS011;29309;42.682;23.372;2022-12-04T13:20:49;10.02;;;5.13;;
43710;SDS011;29309;42.682;23.372;2022-12-04T13:23:27;13.93;;;6.43;;
43710;SDS011;29309;42.682;23.372;2022-12-04T13:26:09;9.55;;;5.55;;
43710;SDS011;29309;42.682;23.372;2022-12-04T13:28:51;12.15;;;6.25;;
43710;SDS011;29309;42.682;23.372;2022-12-04T13:37:11;18.65;;;6.95;;
43710;SDS011;29309;42.682;23.372;2022-12-04T13:40:18;9.30;;;5.50;;
43710;SDS011;29309;42.682;23.372;2022-12-04T13:45:38;9.02;;;5.28;;
43710;SDS011;29309;42.682;23.372;2022-12-04T13:48:05;10.25;;;5.75;;
43710;SDS011;29309;42.682;23.372;2022-12-04T13:50:34;16.73;;;6.22;;
43710;SDS011;29309;42.682;23.372;2022-12-04T13:53:00;15.32;;;6.20;;
43710;SDS011;29309;42.682;23.372;2022-12-04T13:57:56;12.65;;;5.95;;
43710;SDS011;29309;42.682;23.372;2022-12-04T14:02:59;9.77;;;5.68;;
43710;SDS011;29309;42.682;23.372;2022-12-04T14:05:45;8.73;;;5.18;;
43710;SDS011;29309;42.682;23.372;2022-12-04T14:10:43;14.27;;;5.80;;
43710;SDS011;29309;42.682;23.372;2022-12-04T14:15:42;9.10;;;5.10;;
43710;SDS011;29309;42.682;23.372;2022-12-04T14:20:37;10.38;;;5.40;;
43710;SDS011;29309;42.682;23.372;2022-12-04T14:25:50;8.98;;;5.25;;
43710;SDS011;29309;42.682;23.372;2022-12-04T14:28:42;11.10;;;6.07;;
43710;SDS011;29309;42.682;23.372;2022-12-04T14:33:52;21.65;;;5.80;;
43710;SDS011;29309;42.682;23.372;2022-12-04T14:36:40;9.40;;;5.72;;
43710;SDS011;29309;42.682;23.372;2022-12-04T14:41:37;15.57;;;5.88;;
43710;SDS011;29309;42.682;23.372;2022-12-04T14:44:02;11.80;;;5.28;;
43710;SDS011;29309;42.682;23.372;2022-12-04T14:52:17;8.05;;;4.63;;
43710;SDS011;29309;42.682;23.372;2022-12-04T14:57:43;9.70;;;5.63;;
43710;SDS011;29309;42.682;23.372;2022-12-04T15:00:52;10.65;;;5.53;;
43710;SDS011;29309;42.682;23.372;2022-12-04T15:03:19;13.27;;;5.70;;
43710;SDS011;29309;42.682;23.372;2022-12-04T15:05:45;12.55;;;5.85;;
43710;SDS011;29309;42.682;23.372;2022-12-04T15:08:12;10.68;;;5.63;;
43710;SDS011;29309;42.682;23.372;2022-12-04T15:10:37;11.45;;;5.63;;
43710;SDS011;29309;42.682;23.372;2022-12-04T15:13:25;10.70;;;5.13;;
43710;SDS011;29309;42.682;23.372;2022-12-04T15:15:55;15.15;;;5.25;;
43710;SDS011;29309;42.682;23.372;2022-12-04T15:18:21;12.55;;;6.00;;
43710;SDS011;29309;42.682;23.372;2022-12-04T15:23:13;11.50;;;5.70;;
43710;SDS011;29309;42.682;23.372;2022-12-04T15:25:57;10.60;;;4.75;;
43710;SDS011;29309;42.682;23.372;2022-12-04T15:31:11;14.18;;;6.03;;
43710;SDS011;29309;42.682;23.372;2022-12-04T15:33:41;8.93;;;5.40;;
43710;SDS011;29309;42.682;23.372;2022-12-04T15:36:38;7.80;;;4.88;;
43710;SDS011;29309;42.682;23.372;2022-12-04T15:38:59;11.55;;;5.50;;
43710;SDS011;29309;42.682;23.372;2022-12-04T15:41:33;9.45;;;5.50;;
43710;SDS011;29309;42.682;23.372;2022-12-04T15:44:01;11.68;;;5.57;;
43710;SDS011;29309;42.682;23.372;2022-12-04T15:46:45;14.00;;;7.05;;
43710;SDS011;29309;42.682;23.372;2022-12-04T15:49:18;10.27;;;5.90;;
43710;SDS011;29309;42.682;23.372;2022-12-04T15:51:45;10.90;;;6.25;;
43710;SDS011;29309;42.682;23.372;2022-12-04T15:54:21;11.63;;;6.72;;
43710;SDS011;29309;42.682;23.372;2022-12-04T15:57:06;9.93;;;5.80;;
43710;SDS011;29309;42.682;23.372;2022-12-04T15:59:46;13.98;;;5.30;;
43710;SDS011;29309;42.682;23.372;2022-12-04T16:02:27;13.57;;;7.22;;
43710;SDS011;29309;42.682;23.372;2022-12-04T16:04:55;13.40;;;7.90;;
43710;SDS011;29309;42.682;23.372;2022-12-04T16:07:22;12.82;;;6.35;;
43710;SDS011;29309;42.682;23.372;2022-12-04T16:09:50;15.93;;;6.85;;
43710;SDS011;29309;42.682;23.372;2022-12-04T16:12:27;11.88;;;6.75;;
43710;SDS011;29309;42.682;23.372;2022-12-04T16:14:55;14.88;;;7.47;;
43710;SDS011;29309;42.682;23.372;2022-12-04T16:17:28;12.15;;;6.55;;
43710;SDS011;29309;42.682;23.372;2022-12-04T16:19:55;15.93;;;6.78;;
43710;SDS011;29309;42.682;23.372;2022-12-04T16:22:21;12.80;;;6.55;;
43710;SDS011;29309;42.682;23.372;2022-12-04T16:24:49;11.73;;;6.72;;
43710;SDS011;29309;42.682;23.372;2022-12-04T16:30:02;15.55;;;5.80;;
43710;SDS011;29309;42.682;23.372;2022-12-04T16:32:29;11.80;;;6.43;;
43710;SDS011;29309;42.682;23.372;2022-12-04T16:34:56;12.60;;;6.10;;
43710;SDS011;29309;42.682;23.372;2022-12-04T16:37:22;9.43;;;4.57;;
43710;SDS011;29309;42.682;23.372;2022-12-04T16:39:48;10.02;;;6.25;;
43710;SDS011;29309;42.682;23.372;2022-12-04T16:44:49;8.98;;;5.32;;
43710;SDS011;29309;42.682;23.372;2022-12-04T16:47:15;11.93;;;6.05;;
43710;SDS011;29309;42.682;23.372;2022-12-04T16:49:41;9.38;;;4.82;;
43710;SDS011;29309;42.682;23.372;2022-12-04T16:52:09;9.57;;;4.70;;
43710;SDS011;29309;42.682;23.372;2022-12-04T16:54:36;11.80;;;5.53;;
43710;SDS011;29309;42.682;23.372;2022-12-04T16:57:02;8.63;;;4.82;;
43710;SDS011;29309;42.682;23.372;2022-12-04T16:59:28;9.27;;;5.10;;
43710;SDS011;29309;42.682;23.372;2022-12-04T17:01:53;8.77;;;4.55;;
43710;SDS011;29309;42.682;23.372;2022-12-04T17:04:19;10.68;;;4.40;;
43710;SDS011;29309;42.682;23.372;2022-12-04T17:06:44;12.75;;;5.18;;
43710;SDS011;29309;42.682;23.372;2022-12-04T17:09:10;9.95;;;5.18;;
43710;SDS011;29309;42.682;23.372;2022-12-04T17:11:37;10.00;;;5.45;;
43710;SDS011;29309;42.682;23.372;2022-12-04T17:14:03;9.95;;;4.97;;
43710;SDS011;29309;42.682;23.372;2022-12-04T17:16:38;7.13;;;4.00;;